Aviation Digital Data Service (ADDS)

Output produced by METARs form (1928 UTC 26 September 2021)
found at http://www.aviationweather.gov/metar/data/
 
METAR text: UTDL 261900Z 24003MPS 9999 NSC 17/04 Q1007 R26/CLRD70 NOSIG RMK QFE718/0957
Conditions at: UTDL (KHUDZHAND , TJ) observed 1900 UTC 26 September 2021
Temperature: 17.0°C (63°F)
Dewpoint: 4.0°C (39°F) [RH = 42%]
Pressure (altimeter): 29.73 inches Hg (1007.0 mb)
Winds: from the WSW (240 degrees) at 7 MPH (6 knots; 3.1 m/s)
Visibility: 6 or more miles (10+ km)
Ceiling: at least 12,000 feet AGL
Clouds: sky clear below 12,000 feet AGL
Weather: no significant weather observed at this time

METAR text: UTDL 261830Z 24002MPS 9999 NSC 17/04 Q1007 R26/CLRD70 NOSIG RMK QFE718/0957
Conditions at: UTDL (KHUDZHAND , TJ) observed 1830 UTC 26 September 2021
Temperature: 17.0°C (63°F)
Dewpoint: 4.0°C (39°F) [RH = 42%]
Pressure (altimeter): 29.73 inches Hg (1007.0 mb)
Winds: from the WSW (240 degrees) at 5 MPH (4 knots; 2.1 m/s)
Visibility: 6 or more miles (10+ km)
Ceiling: at least 12,000 feet AGL
Clouds: sky clear below 12,000 feet AGL
Weather: no significant weather observed at this time

METAR text: UTDL 261800Z 24003MPS 9999 NSC 18/05 Q1007 R26/CLRD70 NOSIG RMK QFE718/0957
Conditions at: UTDL (KHUDZHAND , TJ) observed 1800 UTC 26 September 2021
Temperature: 18.0°C (64°F)
Dewpoint: 5.0°C (41°F) [RH = 42%]
Pressure (altimeter): 29.73 inches Hg (1007.0 mb)
Winds: from the WSW (240 degrees) at 7 MPH (6 knots; 3.1 m/s)
Visibility: 6 or more miles (10+ km)
Ceiling: at least 12,000 feet AGL
Clouds: sky clear below 12,000 feet AGL
Weather: no significant weather observed at this time

METAR text: UTDL 261730Z 23002MPS 9999 NSC 18/05 Q1007 R26/CLRD70 NOSIG RMK QFE718/0957
Conditions at: UTDL (KHUDZHAND , TJ) observed 1730 UTC 26 September 2021
Temperature: 18.0°C (64°F)
Dewpoint: 5.0°C (41°F) [RH = 42%]
Pressure (altimeter): 29.73 inches Hg (1007.0 mb)
Winds: from the SW (230 degrees) at 5 MPH (4 knots; 2.1 m/s)
Visibility: 6 or more miles (10+ km)
Ceiling: at least 12,000 feet AGL
Clouds: sky clear below 12,000 feet AGL
Weather: no significant weather observed at this time

METAR text: UTDL 261700Z 25002MPS 9999 NSC 18/05 Q1007 R26/CLRD70 NOSIG RMK QFE718/0957
Conditions at: UTDL (KHUDZHAND , TJ) observed 1700 UTC 26 September 2021
Temperature: 18.0°C (64°F)
Dewpoint: 5.0°C (41°F) [RH = 42%]
Pressure (altimeter): 29.73 inches Hg (1007.0 mb)
Winds: from the WSW (250 degrees) at 5 MPH (4 knots; 2.1 m/s)
Visibility: 6 or more miles (10+ km)
Ceiling: at least 12,000 feet AGL
Clouds: sky clear below 12,000 feet AGL
Weather: no significant weather observed at this time

METAR text: UTDL 261630Z 24003MPS 9999 NSC 18/06 Q1007 R26/CLRD70 NOSIG RMK QFE717/0957
Conditions at: UTDL (KHUDZHAND , TJ) observed 1630 UTC 26 September 2021
Temperature: 18.0°C (64°F)
Dewpoint: 6.0°C (43°F) [RH = 45%]
Pressure (altimeter): 29.73 inches Hg (1007.0 mb)
Winds: from the WSW (240 degrees) at 7 MPH (6 knots; 3.1 m/s)
Visibility: 6 or more miles (10+ km)
Ceiling: at least 12,000 feet AGL
Clouds: sky clear below 12,000 feet AGL
Weather: no significant weather observed at this time

METAR text: UTDL 261600Z 25003MPS 9999 NSC 19/07 Q1007 R26/CLRD70 NOSIG RMK QFE717/0957
Conditions at: UTDL (KHUDZHAND , TJ) observed 1600 UTC 26 September 2021
Temperature: 19.0°C (66°F)
Dewpoint: 7.0°C (45°F) [RH = 46%]
Pressure (altimeter): 29.73 inches Hg (1007.0 mb)
Winds: from the WSW (250 degrees) at 7 MPH (6 knots; 3.1 m/s)
Visibility: 6 or more miles (10+ km)
Ceiling: at least 12,000 feet AGL
Clouds: sky clear below 12,000 feet AGL
Weather: no significant weather observed at this time

METAR text: UTDL 261530Z 27002MPS 9999 NSC 20/06 Q1006 R26/CLRD70 NOSIG RMK QFE717/0956
Conditions at: UTDL (KHUDZHAND , TJ) observed 1530 UTC 26 September 2021
Temperature: 20.0°C (68°F)
Dewpoint: 6.0°C (43°F) [RH = 40%]
Pressure (altimeter): 29.70 inches Hg (1006.0 mb)
Winds: from the W (270 degrees) at 5 MPH (4 knots; 2.1 m/s)
Visibility: 6 or more miles (10+ km)
Ceiling: at least 12,000 feet AGL
Clouds: sky clear below 12,000 feet AGL
Weather: no significant weather observed at this time

METAR text: UTDL 261500Z 00000MPS 9999 NSC 21/06 Q1006 R08/CLRD70 NOSIG RMK QFE716/0955
Conditions at: UTDL (KHUDZHAND , TJ) observed 1500 UTC 26 September 2021
Temperature: 21.0°C (70°F)
Dewpoint: 6.0°C (43°F) [RH = 38%]
Pressure (altimeter): 29.70 inches Hg (1006.0 mb)
Winds: calm
Visibility: 6 or more miles (10+ km)
Ceiling: at least 12,000 feet AGL
Clouds: sky clear below 12,000 feet AGL
Weather: no significant weather observed at this time

METAR text: UTDL 261430Z 00000MPS 9999 NSC 24/04 Q1006 R08/CLRD70 NOSIG RMK QFE716/0955
Conditions at: UTDL (KHUDZHAND , TJ) observed 1430 UTC 26 September 2021
Temperature: 24.0°C (75°F)
Dewpoint: 4.0°C (39°F) [RH = 27%]
Pressure (altimeter): 29.70 inches Hg (1006.0 mb)
Winds: calm
Visibility: 6 or more miles (10+ km)
Ceiling: at least 12,000 feet AGL
Clouds: sky clear below 12,000 feet AGL
Weather: no significant weather observed at this time

METAR text: UTDL 261400Z 04002MPS 9999 NSC 26/04 Q1006 R08/CLRD70 NOSIG RMK QFE716/0955
Conditions at: UTDL (KHUDZHAND , TJ) observed 1400 UTC 26 September 2021
Temperature: 26.0°C (79°F)
Dewpoint: 4.0°C (39°F) [RH = 24%]
Pressure (altimeter): 29.70 inches Hg (1006.0 mb)
Winds: from the NE (40 degrees) at 5 MPH (4 knots; 2.1 m/s)
Visibility: 6 or more miles (10+ km)
Ceiling: at least 12,000 feet AGL
Clouds: sky clear below 12,000 feet AGL
Weather: no significant weather observed at this time

METAR text: UTDL 261330Z 09003MPS 9999 NSC 28/01 Q1006 R08/CLRD70 NOSIG RMK QFE716/0954
Conditions at: UTDL (KHUDZHAND , TJ) observed 1330 UTC 26 September 2021
Temperature: 28.0°C (82°F)
Dewpoint: 1.0°C (34°F) [RH = 17%]
Pressure (altimeter): 29.70 inches Hg (1006.0 mb)
Winds: from the E (90 degrees) at 7 MPH (6 knots; 3.1 m/s)
Visibility: 6 or more miles (10+ km)
Ceiling: at least 12,000 feet AGL
Clouds: sky clear below 12,000 feet AGL
Weather: no significant weather observed at this time

METAR text: UTDL 261300Z 09003MPS 9999 NSC 28/03 Q1006 R08/CLRD70 NOSIG RMK QFE716/0954
Conditions at: UTDL (KHUDZHAND , TJ) observed 1300 UTC 26 September 2021
Temperature: 28.0°C (82°F)
Dewpoint: 3.0°C (37°F) [RH = 20%]
Pressure (altimeter): 29.70 inches Hg (1006.0 mb)
Winds: from the E (90 degrees) at 7 MPH (6 knots; 3.1 m/s)
Visibility: 6 or more miles (10+ km)
Ceiling: at least 12,000 feet AGL
Clouds: sky clear below 12,000 feet AGL
Weather: no significant weather observed at this time

METAR text: UTDL 261230Z 09005MPS 9999 NSC 29/03 Q1006 R08/CLRD70 NOSIG RMK QFE716/0954
Conditions at: UTDL (KHUDZHAND , TJ) observed 1230 UTC 26 September 2021
Temperature: 29.0°C (84°F)
Dewpoint: 3.0°C (37°F) [RH = 19%]
Pressure (altimeter): 29.70 inches Hg (1006.0 mb)
Winds: from the E (90 degrees) at 12 MPH (10 knots; 5.1 m/s)
Visibility: 6 or more miles (10+ km)
Ceiling: at least 12,000 feet AGL
Clouds: sky clear below 12,000 feet AGL
Weather: no significant weather observed at this time

METAR text: UTDL 261200Z 08006MPS 9999 NSC 30/04 Q1006 R08/CLRD70 NOSIG RMK QFE716/0954
Conditions at: UTDL (KHUDZHAND , TJ) observed 1200 UTC 26 September 2021
Temperature: 30.0°C (86°F)
Dewpoint: 4.0°C (39°F) [RH = 19%]
Pressure (altimeter): 29.70 inches Hg (1006.0 mb)
Winds: from the E (80 degrees) at 14 MPH (12 knots; 6.2 m/s)
Visibility: 6 or more miles (10+ km)
Ceiling: at least 12,000 feet AGL
Clouds: sky clear below 12,000 feet AGL
Weather: no significant weather observed at this time

METAR text: UTDL 261130Z 07006MPS 9999 NSC 30/03 Q1006 R08/CLRD70 NOSIG RMK QFE716/0955
Conditions at: UTDL (KHUDZHAND , TJ) observed 1130 UTC 26 September 2021
Temperature: 30.0°C (86°F)
Dewpoint: 3.0°C (37°F) [RH = 18%]
Pressure (altimeter): 29.70 inches Hg (1006.0 mb)
Winds: from the ENE (70 degrees) at 14 MPH (12 knots; 6.2 m/s)
Visibility: 6 or more miles (10+ km)
Ceiling: at least 12,000 feet AGL
Clouds: sky clear below 12,000 feet AGL
Weather: no significant weather observed at this time

METAR text: UTDL 261100Z 08008MPS 9999 NSC 31/03 Q1006 R08/CLRD70 NOSIG RMK QFE716/0955
Conditions at: UTDL (KHUDZHAND , TJ) observed 1100 UTC 26 September 2021
Temperature: 31.0°C (88°F)
Dewpoint: 3.0°C (37°F) [RH = 17%]
Pressure (altimeter): 29.70 inches Hg (1006.0 mb)
Winds: from the E (80 degrees) at 18 MPH (16 knots; 8.2 m/s)
Visibility: 6 or more miles (10+ km)
Ceiling: at least 12,000 feet AGL
Clouds: sky clear below 12,000 feet AGL
Weather: no significant weather observed at this time

METAR text: UTDL 261030Z 08008MPS 9999 NSC 31/02 Q1007 R08/CLRD70 NOSIG RMK QFE716/0955
Conditions at: UTDL (KHUDZHAND , TJ) observed 1030 UTC 26 September 2021
Temperature: 31.0°C (88°F)
Dewpoint: 2.0°C (36°F) [RH = 16%]
Pressure (altimeter): 29.73 inches Hg (1007.0 mb)
Winds: from the E (80 degrees) at 18 MPH (16 knots; 8.2 m/s)
Visibility: 6 or more miles (10+ km)
Ceiling: at least 12,000 feet AGL
Clouds: sky clear below 12,000 feet AGL
Weather: no significant weather observed at this time

METAR text: UTDL 261000Z 08008MPS 9999 NSC 31/02 Q1007 R08/CLRD70 NOSIG RMK QFE716/0955
Conditions at: UTDL (KHUDZHAND , TJ) observed 1000 UTC 26 September 2021
Temperature: 31.0°C (88°F)
Dewpoint: 2.0°C (36°F) [RH = 16%]
Pressure (altimeter): 29.73 inches Hg (1007.0 mb)
Winds: from the E (80 degrees) at 18 MPH (16 knots; 8.2 m/s)
Visibility: 6 or more miles (10+ km)
Ceiling: at least 12,000 feet AGL
Clouds: sky clear below 12,000 feet AGL
Weather: no significant weather observed at this time

METAR text: UTDL 260930Z 08009MPS 9999 NSC 31/01 Q1007 R08/CLRD70 NOSIG RMK QFE717/0956
Conditions at: UTDL (KHUDZHAND , TJ) observed 0930 UTC 26 September 2021
Temperature: 31.0°C (88°F)
Dewpoint: 1.0°C (34°F) [RH = 15%]
Pressure (altimeter): 29.73 inches Hg (1007.0 mb)
Winds: from the E (80 degrees) at 20 MPH (17 knots; 8.7 m/s)
Visibility: 6 or more miles (10+ km)
Ceiling: at least 12,000 feet AGL
Clouds: sky clear below 12,000 feet AGL
Weather: no significant weather observed at this time

METAR text: UTDL 260900Z 08009MPS 9999 NSC 30/03 Q1007 R08/CLRD70 NOSIG RMK QFE717/0956
Conditions at: UTDL (KHUDZHAND , TJ) observed 0900 UTC 26 September 2021
Temperature: 30.0°C (86°F)
Dewpoint: 3.0°C (37°F) [RH = 18%]
Pressure (altimeter): 29.73 inches Hg (1007.0 mb)
Winds: from the E (80 degrees) at 20 MPH (17 knots; 8.7 m/s)
Visibility: 6 or more miles (10+ km)
Ceiling: at least 12,000 feet AGL
Clouds: sky clear below 12,000 feet AGL
Weather: no significant weather observed at this time

METAR text: UTDL 260830Z 08008G13MPS 9999 NSC 30/03 Q1008 R08/CLRD70 NOSIG RMK QFE717/0956
Conditions at: UTDL (KHUDZHAND , TJ) observed 0830 UTC 26 September 2021
Temperature: 30.0°C (86°F)
Dewpoint: 3.0°C (37°F) [RH = 18%]
Pressure (altimeter): 29.76 inches Hg (1008.0 mb)
Winds: from the E (80 degrees) at 18 MPH (16 knots; 8.2 m/s)
gusting to 29 MPH (25 knots; 12.9 m/s)
Visibility: 6 or more miles (10+ km)
Ceiling: at least 12,000 feet AGL
Clouds: sky clear below 12,000 feet AGL
Weather: no significant weather observed at this time

METAR text: UTDL 260800Z 08008MPS 9999 NSC 30/03 Q1008 R08/CLRD70 NOSIG RMK QFE717/0956
Conditions at: UTDL (KHUDZHAND , TJ) observed 0800 UTC 26 September 2021
Temperature: 30.0°C (86°F)
Dewpoint: 3.0°C (37°F) [RH = 18%]
Pressure (altimeter): 29.76 inches Hg (1008.0 mb)
Winds: from the E (80 degrees) at 18 MPH (16 knots; 8.2 m/s)
Visibility: 6 or more miles (10+ km)
Ceiling: at least 12,000 feet AGL
Clouds: sky clear below 12,000 feet AGL
Weather: no significant weather observed at this time

METAR text: UTDL 260730Z 08009MPS 9999 NSC 29/04 Q1008 R08/CLRD70 NOSIG RMK QFE717/0957
Conditions at: UTDL (KHUDZHAND , TJ) observed 0730 UTC 26 September 2021
Temperature: 29.0°C (84°F)
Dewpoint: 4.0°C (39°F) [RH = 20%]
Pressure (altimeter): 29.76 inches Hg (1008.0 mb)
Winds: from the E (80 degrees) at 20 MPH (17 knots; 8.7 m/s)
Visibility: 6 or more miles (10+ km)
Ceiling: at least 12,000 feet AGL
Clouds: sky clear below 12,000 feet AGL
Weather: no significant weather observed at this time

METAR text: UTDL 260700Z 08009MPS 9999 NSC 28/06 Q1009 R08/CLRD70 NOSIG RMK QFE718/0957
Conditions at: UTDL (KHUDZHAND , TJ) observed 0700 UTC 26 September 2021
Temperature: 28.0°C (82°F)
Dewpoint: 6.0°C (43°F) [RH = 25%]
Pressure (altimeter): 29.79 inches Hg (1009.0 mb)
Winds: from the E (80 degrees) at 20 MPH (17 knots; 8.7 m/s)
Visibility: 6 or more miles (10+ km)
Ceiling: at least 12,000 feet AGL
Clouds: sky clear below 12,000 feet AGL
Weather: no significant weather observed at this time

METAR text: UTDL 260630Z 08009MPS 9999 NSC 27/06 Q1009 R08/CLRD70 NOSIG RMK QFE718/0958
Conditions at: UTDL (KHUDZHAND , TJ) observed 0630 UTC 26 September 2021
Temperature: 27.0°C (81°F)
Dewpoint: 6.0°C (43°F) [RH = 26%]
Pressure (altimeter): 29.79 inches Hg (1009.0 mb)
Winds: from the E (80 degrees) at 20 MPH (17 knots; 8.7 m/s)
Visibility: 6 or more miles (10+ km)
Ceiling: at least 12,000 feet AGL
Clouds: sky clear below 12,000 feet AGL
Weather: no significant weather observed at this time

METAR text: UTDL 260600Z 08009MPS 9999 NSC 26/05 Q1010 R08/CLRD70 NOSIG RMK QFE718/0958
Conditions at: UTDL (KHUDZHAND , TJ) observed 0600 UTC 26 September 2021
Temperature: 26.0°C (79°F)
Dewpoint: 5.0°C (41°F) [RH = 26%]
Pressure (altimeter): 29.82 inches Hg (1010.0 mb)
Winds: from the E (80 degrees) at 20 MPH (17 knots; 8.7 m/s)
Visibility: 6 or more miles (10+ km)
Ceiling: at least 12,000 feet AGL
Clouds: sky clear below 12,000 feet AGL
Weather: no significant weather observed at this time

METAR text: UTDL 260530Z 08009MPS 9999 NSC 25/06 Q1010 R08/CLRD70 NOSIG RMK QFE719/0958
Conditions at: UTDL (KHUDZHAND , TJ) observed 0530 UTC 26 September 2021
Temperature: 25.0°C (77°F)
Dewpoint: 6.0°C (43°F) [RH = 30%]
Pressure (altimeter): 29.82 inches Hg (1010.0 mb)
Winds: from the E (80 degrees) at 20 MPH (17 knots; 8.7 m/s)
Visibility: 6 or more miles (10+ km)
Ceiling: at least 12,000 feet AGL
Clouds: sky clear below 12,000 feet AGL
Weather: no significant weather observed at this time

METAR text: UTDL 260500Z 08009G14MPS 9999 NSC 24/05 Q1010 R08/CLRD70 NOSIG RMK QFE719/0959
Conditions at: UTDL (KHUDZHAND , TJ) observed 0500 UTC 26 September 2021
Temperature: 24.0°C (75°F)
Dewpoint: 5.0°C (41°F) [RH = 29%]
Pressure (altimeter): 29.82 inches Hg (1010.0 mb)
Winds: from the E (80 degrees) at 20 MPH (17 knots; 8.7 m/s)
gusting to 31 MPH (27 knots; 13.9 m/s)
Visibility: 6 or more miles (10+ km)
Ceiling: at least 12,000 feet AGL
Clouds: sky clear below 12,000 feet AGL
Weather: no significant weather observed at this time

METAR text: UTDL 260430Z 08008MPS 9999 NSC 23/06 Q1011 R08/CLRD70 NOSIG RMK QFE719/0959
Conditions at: UTDL (KHUDZHAND , TJ) observed 0430 UTC 26 September 2021
Temperature: 23.0°C (73°F)
Dewpoint: 6.0°C (43°F) [RH = 33%]
Pressure (altimeter): 29.85 inches Hg (1011.0 mb)
Winds: from the E (80 degrees) at 18 MPH (16 knots; 8.2 m/s)
Visibility: 6 or more miles (10+ km)
Ceiling: at least 12,000 feet AGL
Clouds: sky clear below 12,000 feet AGL
Weather: no significant weather observed at this time

METAR text: UTDL 260400Z 08009MPS 9999 NSC 22/05 Q1011 R08/CLRD70 NOSIG RMK QFE719/0959
Conditions at: UTDL (KHUDZHAND , TJ) observed 0400 UTC 26 September 2021
Temperature: 22.0°C (72°F)
Dewpoint: 5.0°C (41°F) [RH = 33%]
Pressure (altimeter): 29.85 inches Hg (1011.0 mb)
Winds: from the E (80 degrees) at 20 MPH (17 knots; 8.7 m/s)
Visibility: 6 or more miles (10+ km)
Ceiling: at least 12,000 feet AGL
Clouds: sky clear below 12,000 feet AGL
Weather: no significant weather observed at this time

METAR text: UTDL 260330Z 08008MPS 9999 NSC 22/05 Q1011 R08/CLRD70 NOSIG RMK QFE719/0959
Conditions at: UTDL (KHUDZHAND , TJ) observed 0330 UTC 26 September 2021
Temperature: 22.0°C (72°F)
Dewpoint: 5.0°C (41°F) [RH = 33%]
Pressure (altimeter): 29.85 inches Hg (1011.0 mb)
Winds: from the E (80 degrees) at 18 MPH (16 knots; 8.2 m/s)
Visibility: 6 or more miles (10+ km)
Ceiling: at least 12,000 feet AGL
Clouds: sky clear below 12,000 feet AGL
Weather: no significant weather observed at this time

METAR text: UTDL 260300Z 08007G12MPS 9999 NSC 22/06 Q1011 R08/CLRD70 NOSIG RMK QFE719/0959
Conditions at: UTDL (KHUDZHAND , TJ) observed 0300 UTC 26 September 2021
Temperature: 22.0°C (72°F)
Dewpoint: 6.0°C (43°F) [RH = 35%]
Pressure (altimeter): 29.85 inches Hg (1011.0 mb)
Winds: from the E (80 degrees) at 16 MPH (14 knots; 7.2 m/s)
gusting to 26 MPH (23 knots; 11.8 m/s)
Visibility: 6 or more miles (10+ km)
Ceiling: at least 12,000 feet AGL
Clouds: sky clear below 12,000 feet AGL
Weather: no significant weather observed at this time

METAR text: UTDL 260230Z 08005MPS 9999 NSC 21/06 Q1011 R08/CLRD70 NOSIG RMK QFE719/0959
Conditions at: UTDL (KHUDZHAND , TJ) observed 0230 UTC 26 September 2021
Temperature: 21.0°C (70°F)
Dewpoint: 6.0°C (43°F) [RH = 38%]
Pressure (altimeter): 29.85 inches Hg (1011.0 mb)
Winds: from the E (80 degrees) at 12 MPH (10 knots; 5.1 m/s)
Visibility: 6 or more miles (10+ km)
Ceiling: at least 12,000 feet AGL
Clouds: sky clear below 12,000 feet AGL
Weather: no significant weather observed at this time

METAR text: UTDL 260200Z 07004MPS 9999 NSC 19/08 Q1011 R08/CLRD70 NOSIG RMK QFE719/0959
Conditions at: UTDL (KHUDZHAND , TJ) observed 0200 UTC 26 September 2021
Temperature: 19.0°C (66°F)
Dewpoint: 8.0°C (46°F) [RH = 49%]
Pressure (altimeter): 29.85 inches Hg (1011.0 mb)
Winds: from the ENE (70 degrees) at 9 MPH (8 knots; 4.1 m/s)
Visibility: 6 or more miles (10+ km)
Ceiling: at least 12,000 feet AGL
Clouds: sky clear below 12,000 feet AGL
Weather: no significant weather observed at this time

METAR text: UTDL 260130Z 06004MPS 9999 NSC 18/08 Q1011 R08/CLRD70 NOSIG RMK QFE719/0959
Conditions at: UTDL (KHUDZHAND , TJ) observed 0130 UTC 26 September 2021
Temperature: 18.0°C (64°F)
Dewpoint: 8.0°C (46°F) [RH = 52%]
Pressure (altimeter): 29.85 inches Hg (1011.0 mb)
Winds: from the ENE (60 degrees) at 9 MPH (8 knots; 4.1 m/s)
Visibility: 6 or more miles (10+ km)
Ceiling: at least 12,000 feet AGL
Clouds: sky clear below 12,000 feet AGL
Weather: no significant weather observed at this time

METAR text: UTDL 260100Z 06004MPS 9999 NSC 18/08 Q1011 R08/CLRD70 NOSIG RMK QFE719/0959
Conditions at: UTDL (KHUDZHAND , TJ) observed 0100 UTC 26 September 2021
Temperature: 18.0°C (64°F)
Dewpoint: 8.0°C (46°F) [RH = 52%]
Pressure (altimeter): 29.85 inches Hg (1011.0 mb)
Winds: from the ENE (60 degrees) at 9 MPH (8 knots; 4.1 m/s)
Visibility: 6 or more miles (10+ km)
Ceiling: at least 12,000 feet AGL
Clouds: sky clear below 12,000 feet AGL
Weather: no significant weather observed at this time

METAR text: UTDL 260030Z 06003MPS 9999 NSC 18/09 Q1011 R08/CLRD70 NOSIG RMK QFE719/0959
Conditions at: UTDL (KHUDZHAND , TJ) observed 0030 UTC 26 September 2021
Temperature: 18.0°C (64°F)
Dewpoint: 9.0°C (48°F) [RH = 56%]
Pressure (altimeter): 29.85 inches Hg (1011.0 mb)
Winds: from the ENE (60 degrees) at 7 MPH (6 knots; 3.1 m/s)
Visibility: 6 or more miles (10+ km)
Ceiling: at least 12,000 feet AGL
Clouds: sky clear below 12,000 feet AGL
Weather: no significant weather observed at this time

METAR text: UTDL 260000Z 04003MPS 9999 NSC 18/08 Q1011 R08/CLRD70 NOSIG RMK QFE719/0959
Conditions at: UTDL (KHUDZHAND , TJ) observed 0000 UTC 26 September 2021
Temperature: 18.0°C (64°F)
Dewpoint: 8.0°C (46°F) [RH = 52%]
Pressure (altimeter): 29.85 inches Hg (1011.0 mb)
Winds: from the NE (40 degrees) at 7 MPH (6 knots; 3.1 m/s)
Visibility: 6 or more miles (10+ km)
Ceiling: at least 12,000 feet AGL
Clouds: sky clear below 12,000 feet AGL
Weather: no significant weather observed at this time

METAR text: UTDL 252330Z 05003MPS 9999 NSC 18/08 Q1011 R08/CLRD70 NOSIG RMK QFE719/0959
Conditions at: UTDL (KHUDZHAND , TJ) observed 2330 UTC 25 September 2021
Temperature: 18.0°C (64°F)
Dewpoint: 8.0°C (46°F) [RH = 52%]
Pressure (altimeter): 29.85 inches Hg (1011.0 mb)
Winds: from the NE (50 degrees) at 7 MPH (6 knots; 3.1 m/s)
Visibility: 6 or more miles (10+ km)
Ceiling: at least 12,000 feet AGL
Clouds: sky clear below 12,000 feet AGL
Weather: no significant weather observed at this time

METAR text: UTDL 252300Z 07003MPS 9999 NSC 17/08 Q1011 R08/CLRD70 NOSIG RMK QFE719/0959
Conditions at: UTDL (KHUDZHAND , TJ) observed 2300 UTC 25 September 2021
Temperature: 17.0°C (63°F)
Dewpoint: 8.0°C (46°F) [RH = 55%]
Pressure (altimeter): 29.85 inches Hg (1011.0 mb)
Winds: from the ENE (70 degrees) at 7 MPH (6 knots; 3.1 m/s)
Visibility: 6 or more miles (10+ km)
Ceiling: at least 12,000 feet AGL
Clouds: sky clear below 12,000 feet AGL
Weather: no significant weather observed at this time

METAR text: UTDL 252230Z 09003MPS 9999 NSC 17/08 Q1011 R26/CLRD70 NOSIG RMK QFE721/0961
Conditions at: UTDL (KHUDZHAND , TJ) observed 2230 UTC 25 September 2021
Temperature: 17.0°C (63°F)
Dewpoint: 8.0°C (46°F) [RH = 55%]
Pressure (altimeter): 29.85 inches Hg (1011.0 mb)
Winds: from the E (90 degrees) at 7 MPH (6 knots; 3.1 m/s)
Visibility: 6 or more miles (10+ km)
Ceiling: at least 12,000 feet AGL
Clouds: sky clear below 12,000 feet AGL
Weather: no significant weather observed at this time

METAR text: UTDL 252200Z 05002MPS 9999 NSC 17/09 Q1011 R26/CLRD70 NOSIG RMK QFE721/0961
Conditions at: UTDL (KHUDZHAND , TJ) observed 2200 UTC 25 September 2021
Temperature: 17.0°C (63°F)
Dewpoint: 9.0°C (48°F) [RH = 59%]
Pressure (altimeter): 29.85 inches Hg (1011.0 mb)
Winds: from the NE (50 degrees) at 5 MPH (4 knots; 2.1 m/s)
Visibility: 6 or more miles (10+ km)
Ceiling: at least 12,000 feet AGL
Clouds: sky clear below 12,000 feet AGL
Weather: no significant weather observed at this time

METAR text: UTDL 252130Z 04001MPS 9999 NSC 16/09 Q1011 R26/CLRD70 NOSIG RMK QFE721/0961
Conditions at: UTDL (KHUDZHAND , TJ) observed 2130 UTC 25 September 2021
Temperature: 16.0°C (61°F)
Dewpoint: 9.0°C (48°F) [RH = 63%]
Pressure (altimeter): 29.85 inches Hg (1011.0 mb)
Winds: from the NE (40 degrees) at 2 MPH (2 knots; 1.0 m/s)
Visibility: 6 or more miles (10+ km)
Ceiling: at least 12,000 feet AGL
Clouds: sky clear below 12,000 feet AGL
Weather: no significant weather observed at this time

METAR text: UTDL 252100Z 00000MPS 9999 NSC 15/09 Q1011 R26/CLRD70 NOSIG RMK QFE721/0961
Conditions at: UTDL (KHUDZHAND , TJ) observed 2100 UTC 25 September 2021
Temperature: 15.0°C (59°F)
Dewpoint: 9.0°C (48°F) [RH = 67%]
Pressure (altimeter): 29.85 inches Hg (1011.0 mb)
Winds: calm
Visibility: 6 or more miles (10+ km)
Ceiling: at least 12,000 feet AGL
Clouds: sky clear below 12,000 feet AGL
Weather: no significant weather observed at this time

METAR text: UTDL 252030Z 14001MPS 9999 NSC 14/08 Q1012 R26/CLRD70 NOSIG RMK QFE721/0961
Conditions at: UTDL (KHUDZHAND , TJ) observed 2030 UTC 25 September 2021
Temperature: 14.0°C (57°F)
Dewpoint: 8.0°C (46°F) [RH = 67%]
Pressure (altimeter): 29.88 inches Hg (1012.0 mb)
Winds: from the SE (140 degrees) at 2 MPH (2 knots; 1.0 m/s)
Visibility: 6 or more miles (10+ km)
Ceiling: at least 12,000 feet AGL
Clouds: sky clear below 12,000 feet AGL
Weather: no significant weather observed at this time

METAR text: UTDL 252000Z 00000MPS 9999 NSC 16/07 Q1012 R26/CLRD70 NOSIG RMK QFE721/0961
Conditions at: UTDL (KHUDZHAND , TJ) observed 2000 UTC 25 September 2021
Temperature: 16.0°C (61°F)
Dewpoint: 7.0°C (45°F) [RH = 55%]
Pressure (altimeter): 29.88 inches Hg (1012.0 mb)
Winds: calm
Visibility: 6 or more miles (10+ km)
Ceiling: at least 12,000 feet AGL
Clouds: sky clear below 12,000 feet AGL
Weather: no significant weather observed at this time

METAR text: UTDL 251930Z 14001MPS 9999 NSC 15/08 Q1012 R26/CLRD70 NOSIG RMK QFE721/0962
Conditions at: UTDL (KHUDZHAND , TJ) observed 1930 UTC 25 September 2021
Temperature: 15.0°C (59°F)
Dewpoint: 8.0°C (46°F) [RH = 63%]
Pressure (altimeter): 29.88 inches Hg (1012.0 mb)
Winds: from the SE (140 degrees) at 2 MPH (2 knots; 1.0 m/s)
Visibility: 6 or more miles (10+ km)
Ceiling: at least 12,000 feet AGL
Clouds: sky clear below 12,000 feet AGL
Weather: no significant weather observed at this time

METAR text: UTDL 251900Z 23001MPS 9999 NSC 15/08 Q1012 R26/CLRD70 NOSIG RMK QFE721/0962
Conditions at: UTDL (KHUDZHAND , TJ) observed 1900 UTC 25 September 2021
Temperature: 15.0°C (59°F)
Dewpoint: 8.0°C (46°F) [RH = 63%]
Pressure (altimeter): 29.88 inches Hg (1012.0 mb)
Winds: from the SW (230 degrees) at 2 MPH (2 knots; 1.0 m/s)
Visibility: 6 or more miles (10+ km)
Ceiling: at least 12,000 feet AGL
Clouds: sky clear below 12,000 feet AGL
Weather: no significant weather observed at this time

METAR text: UTDL 251830Z 22001MPS 9999 NSC 15/08 Q1012 R26/CLRD70 NOSIG RMK QFE721/0962
Conditions at: UTDL (KHUDZHAND , TJ) observed 1830 UTC 25 September 2021
Temperature: 15.0°C (59°F)
Dewpoint: 8.0°C (46°F) [RH = 63%]
Pressure (altimeter): 29.88 inches Hg (1012.0 mb)
Winds: from the SW (220 degrees) at 2 MPH (2 knots; 1.0 m/s)
Visibility: 6 or more miles (10+ km)
Ceiling: at least 12,000 feet AGL
Clouds: sky clear below 12,000 feet AGL
Weather: no significant weather observed at this time

METAR text: UTDL 251800Z 24002MPS 9999 NSC 16/08 Q1012 R26/CLRD70 NOSIG RMK QFE721/0962
Conditions at: UTDL (KHUDZHAND , TJ) observed 1800 UTC 25 September 2021
Temperature: 16.0°C (61°F)
Dewpoint: 8.0°C (46°F) [RH = 59%]
Pressure (altimeter): 29.88 inches Hg (1012.0 mb)
Winds: from the WSW (240 degrees) at 5 MPH (4 knots; 2.1 m/s)
Visibility: 6 or more miles (10+ km)
Ceiling: at least 12,000 feet AGL
Clouds: sky clear below 12,000 feet AGL
Weather: no significant weather observed at this time

METAR text: UTDL 251730Z 24002MPS 9999 NSC 16/08 Q1012 R26/CLRD70 NOSIG RMK QFE721/0962
Conditions at: UTDL (KHUDZHAND , TJ) observed 1730 UTC 25 September 2021
Temperature: 16.0°C (61°F)
Dewpoint: 8.0°C (46°F) [RH = 59%]
Pressure (altimeter): 29.88 inches Hg (1012.0 mb)
Winds: from the WSW (240 degrees) at 5 MPH (4 knots; 2.1 m/s)
Visibility: 6 or more miles (10+ km)
Ceiling: at least 12,000 feet AGL
Clouds: sky clear below 12,000 feet AGL
Weather: no significant weather observed at this time

METAR text: UTDL 251700Z 22002MPS 9999 NSC 17/09 Q1012 R26/CLRD70 NOSIG RMK QFE721/0962
Conditions at: UTDL (KHUDZHAND , TJ) observed 1700 UTC 25 September 2021
Temperature: 17.0°C (63°F)
Dewpoint: 9.0°C (48°F) [RH = 59%]
Pressure (altimeter): 29.88 inches Hg (1012.0 mb)
Winds: from the SW (220 degrees) at 5 MPH (4 knots; 2.1 m/s)
Visibility: 6 or more miles (10+ km)
Ceiling: at least 12,000 feet AGL
Clouds: sky clear below 12,000 feet AGL
Weather: no significant weather observed at this time

METAR text: UTDL 251630Z 23001MPS 9999 NSC 17/09 Q1012 R26/CLRD70 NOSIG RMK QFE722/0962
Conditions at: UTDL (KHUDZHAND , TJ) observed 1630 UTC 25 September 2021
Temperature: 17.0°C (63°F)
Dewpoint: 9.0°C (48°F) [RH = 59%]
Pressure (altimeter): 29.88 inches Hg (1012.0 mb)
Winds: from the SW (230 degrees) at 2 MPH (2 knots; 1.0 m/s)
Visibility: 6 or more miles (10+ km)
Ceiling: at least 12,000 feet AGL
Clouds: sky clear below 12,000 feet AGL
Weather: no significant weather observed at this time

METAR text: UTDL 251600Z 21002MPS 9999 NSC 17/09 Q1012 R26/CLRD70 NOSIG RMK QFE722/0962
Conditions at: UTDL (KHUDZHAND , TJ) observed 1600 UTC 25 September 2021
Temperature: 17.0°C (63°F)
Dewpoint: 9.0°C (48°F) [RH = 59%]
Pressure (altimeter): 29.88 inches Hg (1012.0 mb)
Winds: from the SSW (210 degrees) at 5 MPH (4 knots; 2.1 m/s)
Visibility: 6 or more miles (10+ km)
Ceiling: at least 12,000 feet AGL
Clouds: sky clear below 12,000 feet AGL
Weather: no significant weather observed at this time

METAR text: UTDL 251530Z 24002MPS 9999 NSC 18/10 Q1012 R26/CLRD70 NOSIG RMK QFE722/0962
Conditions at: UTDL (KHUDZHAND , TJ) observed 1530 UTC 25 September 2021
Temperature: 18.0°C (64°F)
Dewpoint: 10.0°C (50°F) [RH = 59%]
Pressure (altimeter): 29.88 inches Hg (1012.0 mb)
Winds: from the WSW (240 degrees) at 5 MPH (4 knots; 2.1 m/s)
Visibility: 6 or more miles (10+ km)
Ceiling: at least 12,000 feet AGL
Clouds: sky clear below 12,000 feet AGL
Weather: no significant weather observed at this time

METAR text: UTDL 251500Z 23001MPS 9999 NSC 19/09 Q1012 R26/CLRD70 NOSIG RMK QFE722/0962
Conditions at: UTDL (KHUDZHAND , TJ) observed 1500 UTC 25 September 2021
Temperature: 19.0°C (66°F)
Dewpoint: 9.0°C (48°F) [RH = 52%]
Pressure (altimeter): 29.88 inches Hg (1012.0 mb)
Winds: from the SW (230 degrees) at 2 MPH (2 knots; 1.0 m/s)
Visibility: 6 or more miles (10+ km)
Ceiling: at least 12,000 feet AGL
Clouds: sky clear below 12,000 feet AGL
Weather: no significant weather observed at this time

METAR text: UTDL 251430Z 22002MPS 9999 NSC 20/09 Q1012 R26/CLRD70 NOSIG RMK QFE721/0962
Conditions at: UTDL (KHUDZHAND , TJ) observed 1430 UTC 25 September 2021
Temperature: 20.0°C (68°F)
Dewpoint: 9.0°C (48°F) [RH = 49%]
Pressure (altimeter): 29.88 inches Hg (1012.0 mb)
Winds: from the SW (220 degrees) at 5 MPH (4 knots; 2.1 m/s)
Visibility: 6 or more miles (10+ km)
Ceiling: at least 12,000 feet AGL
Clouds: sky clear below 12,000 feet AGL
Weather: no significant weather observed at this time

METAR text: UTDL 251400Z 25002MPS 9999 NSC 21/08 Q1012 R26/CLRD70 NOSIG RMK QFE721/0962
Conditions at: UTDL (KHUDZHAND , TJ) observed 1400 UTC 25 September 2021
Temperature: 21.0°C (70°F)
Dewpoint: 8.0°C (46°F) [RH = 43%]
Pressure (altimeter): 29.88 inches Hg (1012.0 mb)
Winds: from the WSW (250 degrees) at 5 MPH (4 knots; 2.1 m/s)
Visibility: 6 or more miles (10+ km)
Ceiling: at least 12,000 feet AGL
Clouds: sky clear below 12,000 feet AGL
Weather: no significant weather observed at this time

METAR text: UTDL 251330Z 23002MPS 9999 NSC 23/07 Q1012 R08/CLRD70 NOSIG RMK QFE720/0960
Conditions at: UTDL (KHUDZHAND , TJ) observed 1330 UTC 25 September 2021
Temperature: 23.0°C (73°F)
Dewpoint: 7.0°C (45°F) [RH = 36%]
Pressure (altimeter): 29.88 inches Hg (1012.0 mb)
Winds: from the SW (230 degrees) at 5 MPH (4 knots; 2.1 m/s)
Visibility: 6 or more miles (10+ km)
Ceiling: at least 12,000 feet AGL
Clouds: sky clear below 12,000 feet AGL
Weather: no significant weather observed at this time

METAR text: UTDL 251300Z 20002MPS 9999 NSC 25/07 Q1012 R08/CLRD70 NOSIG RMK QFE720/0960
Conditions at: UTDL (KHUDZHAND , TJ) observed 1300 UTC 25 September 2021
Temperature: 25.0°C (77°F)
Dewpoint: 7.0°C (45°F) [RH = 32%]
Pressure (altimeter): 29.88 inches Hg (1012.0 mb)
Winds: from the SSW (200 degrees) at 5 MPH (4 knots; 2.1 m/s)
Visibility: 6 or more miles (10+ km)
Ceiling: at least 12,000 feet AGL
Clouds: sky clear below 12,000 feet AGL
Weather: no significant weather observed at this time

METAR text: UTDL 251230Z 14002MPS 9999 NSC 29/05 Q1012 R08/CLRD70 NOSIG RMK QFE720/0960
Conditions at: UTDL (KHUDZHAND , TJ) observed 1230 UTC 25 September 2021
Temperature: 29.0°C (84°F)
Dewpoint: 5.0°C (41°F) [RH = 22%]
Pressure (altimeter): 29.88 inches Hg (1012.0 mb)
Winds: from the SE (140 degrees) at 5 MPH (4 knots; 2.1 m/s)
Visibility: 6 or more miles (10+ km)
Ceiling: at least 12,000 feet AGL
Clouds: sky clear below 12,000 feet AGL
Weather: no significant weather observed at this time

METAR text: UTDL 251200Z 10002MPS 9999 NSC 30/M00 Q1012 R08/CLRD70 NOSIG RMK QFE720/0960
Conditions at: UTDL (KHUDZHAND , TJ) observed 1200 UTC 25 September 2021
Temperature: 30.0°C (86°F)
Dewpoint: 0.0°C (32°F) [RH = 14%]
Pressure (altimeter): 29.88 inches Hg (1012.0 mb)
Winds: from the E (100 degrees) at 5 MPH (4 knots; 2.1 m/s)
Visibility: 6 or more miles (10+ km)
Ceiling: at least 12,000 feet AGL
Clouds: sky clear below 12,000 feet AGL
Weather: no significant weather observed at this time

METAR text: UTDL 251130Z 06003MPS 9999 NSC 30/M01 Q1012 R08/CLRD70 NOSIG RMK QFE720/0960
Conditions at: UTDL (KHUDZHAND , TJ) observed 1130 UTC 25 September 2021
Temperature: 30.0°C (86°F)
Dewpoint: -1.0°C (30°F) [RH = 13%]
Pressure (altimeter): 29.88 inches Hg (1012.0 mb)
Winds: from the ENE (60 degrees) at 7 MPH (6 knots; 3.1 m/s)
Visibility: 6 or more miles (10+ km)
Ceiling: at least 12,000 feet AGL
Clouds: sky clear below 12,000 feet AGL
Weather: no significant weather observed at this time

METAR text: UTDL 251100Z 07004MPS 9999 NSC 30/01 Q1012 R08/CLRD70 NOSIG RMK QFE720/0960
Conditions at: UTDL (KHUDZHAND , TJ) observed 1100 UTC 25 September 2021
Temperature: 30.0°C (86°F)
Dewpoint: 1.0°C (34°F) [RH = 15%]
Pressure (altimeter): 29.88 inches Hg (1012.0 mb)
Winds: from the ENE (70 degrees) at 9 MPH (8 knots; 4.1 m/s)
Visibility: 6 or more miles (10+ km)
Ceiling: at least 12,000 feet AGL
Clouds: sky clear below 12,000 feet AGL
Weather: no significant weather observed at this time

METAR text: UTDL 251030Z 07005MPS 9999 NSC 30/02 Q1012 R08/CLRD70 NOSIG RMK QFE720/0960
Conditions at: UTDL (KHUDZHAND , TJ) observed 1030 UTC 25 September 2021
Temperature: 30.0°C (86°F)
Dewpoint: 2.0°C (36°F) [RH = 17%]
Pressure (altimeter): 29.88 inches Hg (1012.0 mb)
Winds: from the ENE (70 degrees) at 12 MPH (10 knots; 5.1 m/s)
Visibility: 6 or more miles (10+ km)
Ceiling: at least 12,000 feet AGL
Clouds: sky clear below 12,000 feet AGL
Weather: no significant weather observed at this time

METAR text: UTDL 251000Z 06006MPS 9999 NSC 30/02 Q1012 R08/CLRD70 NOSIG RMK QFE720/0960
Conditions at: UTDL (KHUDZHAND , TJ) observed 1000 UTC 25 September 2021
Temperature: 30.0°C (86°F)
Dewpoint: 2.0°C (36°F) [RH = 17%]
Pressure (altimeter): 29.88 inches Hg (1012.0 mb)
Winds: from the ENE (60 degrees) at 14 MPH (12 knots; 6.2 m/s)
Visibility: 6 or more miles (10+ km)
Ceiling: at least 12,000 feet AGL
Clouds: sky clear below 12,000 feet AGL
Weather: no significant weather observed at this time

METAR text: UTDL 250930Z 07007MPS 9999 NSC 30/01 Q1013 R08/CLRD70 NOSIG RMK QFE720/0961
Conditions at: UTDL (KHUDZHAND , TJ) observed 0930 UTC 25 September 2021
Temperature: 30.0°C (86°F)
Dewpoint: 1.0°C (34°F) [RH = 15%]
Pressure (altimeter): 29.91 inches Hg (1013.0 mb)
Winds: from the ENE (70 degrees) at 16 MPH (14 knots; 7.2 m/s)
Visibility: 6 or more miles (10+ km)
Ceiling: at least 12,000 feet AGL
Clouds: sky clear below 12,000 feet AGL
Weather: no significant weather observed at this time

METAR text: UTDL 250900Z 07007MPS 9999 NSC 30/02 Q1013 R08/CLRD70 NOSIG RMK QFE721/0961
Conditions at: UTDL (KHUDZHAND , TJ) observed 0900 UTC 25 September 2021
Temperature: 30.0°C (86°F)
Dewpoint: 2.0°C (36°F) [RH = 17%]
Pressure (altimeter): 29.91 inches Hg (1013.0 mb)
Winds: from the ENE (70 degrees) at 16 MPH (14 knots; 7.2 m/s)
Visibility: 6 or more miles (10+ km)
Ceiling: at least 12,000 feet AGL
Clouds: sky clear below 12,000 feet AGL
Weather: no significant weather observed at this time

METAR text: UTDL 250830Z 07008MPS 9999 NSC 29/02 Q1013 R08/CLRD70 NOSIG RMK QFE721/0961
Conditions at: UTDL (KHUDZHAND , TJ) observed 0830 UTC 25 September 2021
Temperature: 29.0°C (84°F)
Dewpoint: 2.0°C (36°F) [RH = 18%]
Pressure (altimeter): 29.91 inches Hg (1013.0 mb)
Winds: from the ENE (70 degrees) at 18 MPH (16 knots; 8.2 m/s)
Visibility: 6 or more miles (10+ km)
Ceiling: at least 12,000 feet AGL
Clouds: sky clear below 12,000 feet AGL
Weather: no significant weather observed at this time

METAR text: UTDL 250800Z 07008MPS 9999 NSC 29/03 Q1013 R08/CLRD70 NOSIG RMK QFE721/0962
Conditions at: UTDL (KHUDZHAND , TJ) observed 0800 UTC 25 September 2021
Temperature: 29.0°C (84°F)
Dewpoint: 3.0°C (37°F) [RH = 19%]
Pressure (altimeter): 29.91 inches Hg (1013.0 mb)
Winds: from the ENE (70 degrees) at 18 MPH (16 knots; 8.2 m/s)
Visibility: 6 or more miles (10+ km)
Ceiling: at least 12,000 feet AGL
Clouds: sky clear below 12,000 feet AGL
Weather: no significant weather observed at this time

METAR text: UTDL 250730Z 07008MPS 9999 NSC 28/06 Q1014 R08/CLRD70 NOSIG RMK QFE721/0962
Conditions at: UTDL (KHUDZHAND , TJ) observed 0730 UTC 25 September 2021
Temperature: 28.0°C (82°F)
Dewpoint: 6.0°C (43°F) [RH = 25%]
Pressure (altimeter): 29.94 inches Hg (1014.0 mb)
Winds: from the ENE (70 degrees) at 18 MPH (16 knots; 8.2 m/s)
Visibility: 6 or more miles (10+ km)
Ceiling: at least 12,000 feet AGL
Clouds: sky clear below 12,000 feet AGL
Weather: no significant weather observed at this time

Forecast for: UTDL (KHUDZHAND , TJ)
Text: TAF UTDL 261800Z 2619/2707 24006MPS 7000 SCT080
Forecast period: 1900 UTC 26 September 2021 to 0700 UTC 27 September 2021
Forecast type: FROM: standard forecast or significant change
Winds: from the WSW (240 degrees) at 14 MPH (12 knots; 6.2 m/s)
Visibility: 4 miles (7 km)
Ceiling: at least 12,000 feet AGL
Clouds: scattered clouds at 8000 feet AGL
Weather: no significant weather forecast for this period
Text: TEMPO 2619/2707 27011MPS FEW060CB
Forecast period: 1900 UTC 26 September 2021 to 0700 UTC 27 September 2021
Forecast type: TEMPORARY: The following changes expected for less than half the time period
Winds: from the W (270 degrees) at 24 MPH (21 knots; 10.8 m/s)
Visibility: missing
Ceiling: at least 12,000 feet AGL
Clouds: few clouds at 6000 feet AGL
Weather: no significant weather forecast for this period